Time;durP1;ratioP1;P1;durP2;ratioP2;P2;SDS_P1;SDS_P2;PMS_P1;PMS_P2;Temp;Humidity;BMP_temperature;BMP_pressure;BME280_temperature;BME280_humidity;BME280_pressure;Samples;Min_cycle;Max_cycle;Signal;HPM_P1;HPM_P2
2021/03/27 00:01:04;;;;;;;50.10;29.10;;;;;;;4.30;73.81;99999.18;1808432;78;21081;-62
2021/03/27 00:03:48;;;;;;;51.95;29.85;;;;;;;4.28;73.87;99997.91;1808489;78;21115;-61
2021/03/27 00:06:34;;;;;;;54.30;30.00;;;;;;;4.27;73.95;99996.62;1808517;79;21073;-61
2021/03/27 00:09:30;;;;;;;43.38;28.62;;;;;;;4.29;73.97;100000.05;1807927;79;21116;-63
2021/03/27 00:12:14;;;;;;;45.05;27.87;;;;;;;4.30;73.94;99997.46;1759244;81;21335;-62
2021/03/27 00:14:59;;;;;;;46.05;26.45;;;;;;;4.30;73.95;99993.59;1759185;81;21140;-62
2021/03/27 00:17:41;;;;;;;44.88;27.27;;;;;;;4.33;73.94;99995.30;1759212;81;21514;-62
2021/03/27 00:20:38;;;;;;;45.92;29.23;;;;;;;4.33;73.84;99989.72;1759295;81;21026;-62
2021/03/27 00:23:29;;;;;;;44.73;28.17;;;;;;;4.32;73.97;99984.58;1759269;81;21478;-62
2021/03/27 00:26:24;;;;;;;47.95;29.63;;;;;;;4.34;74.00;99980.27;1759230;80;21381;-62
2021/03/27 00:29:01;;;;;;;51.02;30.12;;;;;;;4.35;73.97;99980.27;1759191;81;21486;-62
2021/03/27 00:31:38;;;;;;;46.48;30.10;;;;;;;4.37;73.94;99988.83;1759231;81;21463;-62
2021/03/27 00:34:13;;;;;;;44.35;29.65;;;;;;;4.40;73.84;99988.78;1759207;81;21054;-61
2021/03/27 00:36:50;;;;;;;50.28;27.80;;;;;;;4.42;73.81;99984.91;1759140;80;21097;-61
2021/03/27 00:39:44;;;;;;;46.15;27.35;;;;;;;4.40;73.72;99986.20;1759227;81;21605;-61
2021/03/27 00:42:28;;;;;;;51.13;28.38;;;;;;;4.38;73.75;99988.40;1759309;80;21128;-61
2021/03/27 00:45:05;;;;;;;51.10;29.98;;;;;;;4.37;73.93;99989.27;1738962;81;21479;-61
2021/03/27 00:47:38;;;;;;;51.08;28.95;;;;;;;4.35;74.02;99988.42;1757821;81;21097;-61
2021/03/27 00:50:25;;;;;;;46.37;27.77;;;;;;;4.35;74.12;99985.84;1759250;81;21564;-61
2021/03/27 00:53:02;;;;;;;46.05;27.82;;;;;;;4.37;74.18;99985.41;1719349;81;21140;-61
2021/03/27 00:55:38;;;;;;;75.80;29.77;;;;;;;4.39;74.11;99980.66;1759200;81;21599;-61
2021/03/27 00:58:15;;;;;;;48.35;27.60;;;;;;;4.41;74.06;99988.34;1759168;81;21093;-61
2021/03/27 01:00:48;;;;;;;38.53;24.87;;;;;;;4.37;74.03;99985.41;1740548;81;21081;-61
2021/03/27 01:03:40;;;;;;;42.83;27.55;;;;;;;4.29;74.08;99991.89;1759182;80;21113;-62
2021/03/27 01:06:41;;;;;;;39.53;24.63;;;;;;;4.25;74.30;99999.64;1759193;81;21186;-62
2021/03/27 01:09:37;;;;;;;43.10;24.07;;;;;;;4.20;74.52;99995.80;1759054;81;21081;-62
2021/03/27 01:12:31;;;;;;;42.60;25.30;;;;;;;4.18;74.81;99997.56;1759121;81;21093;-62
2021/03/27 01:15:10;;;;;;;40.12;25.57;;;;;;;4.20;74.88;99998.84;1759309;80;21061;-62
2021/03/27 01:17:46;;;;;;;41.48;27.62;;;;;;;4.20;74.91;99997.09;1742448;81;21121;-62
2021/03/27 01:20:29;;;;;;;39.50;25.82;;;;;;;4.22;74.95;99997.94;1740433;81;21144;-62
2021/03/27 01:23:00;;;;;;;43.17;27.52;;;;;;;4.24;74.92;99997.92;1759147;80;21077;-62
2021/03/27 01:25:34;;;;;;;42.23;26.07;;;;;;;4.22;75.00;99995.36;1759176;81;21180;-62
2021/03/27 01:28:29;;;;;;;40.38;25.88;;;;;;;4.25;74.97;99996.63;1759172;80;21105;-62
2021/03/27 01:31:14;;;;;;;42.40;26.95;;;;;;;4.29;74.93;99994.89;1758869;81;21073;-61
2021/03/27 01:34:03;;;;;;;47.13;28.35;;;;;;;4.34;74.90;99997.01;1759273;80;22113;-62
2021/03/27 01:36:50;;;;;;;47.80;28.38;;;;;;;4.36;74.84;100006.44;1759059;81;21100;-62
2021/03/27 01:39:28;;;;;;;45.88;27.10;;;;;;;4.38;74.83;100002.56;1749459;80;21129;-62
2021/03/27 01:42:29;;;;;;;45.55;26.82;;;;;;;4.41;74.86;100003.80;1739899;81;21078;-62
2021/03/27 01:45:20;;;;;;;46.63;26.95;;;;;;;4.45;74.69;99994.75;1750491;81;21070;-62
2021/03/27 01:47:56;;;;;;;46.42;27.10;;;;;;;4.44;74.58;100000.77;1759132;81;21364;-62
2021/03/27 01:50:40;;;;;;;45.70;26.27;;;;;;;4.43;74.52;100005.93;1759103;81;21053;-62
2021/03/27 01:53:35;;;;;;;42.95;26.87;;;;;;;4.42;74.51;99999.06;1759154;81;21037;-62
2021/03/27 01:56:30;;;;;;;42.05;26.93;;;;;;;4.39;74.63;100002.55;1759055;81;21082;-62
2021/03/27 01:59:27;;;;;;;43.05;25.23;;;;;;;4.41;74.70;100000.79;1758926;80;21066;-63
2021/03/27 02:02:14;;;;;;;39.85;24.60;;;;;;;4.41;74.62;100001.22;1759132;81;21251;-63
2021/03/27 02:07:55;;;;;;;45.63;25.35;;;;;;;4.35;74.62;100003.88;1758974;81;21196;-61
2021/03/27 02:10:41;;;;;;;41.40;22.87;;;;;;;4.30;74.74;100005.19;1758988;79;21207;-61
2021/03/27 02:13:37;;;;;;;46.25;24.92;;;;;;;4.27;74.77;100006.48;1748743;81;21172;-61
2021/03/27 02:16:38;;;;;;;40.05;22.87;;;;;;;4.25;74.89;100008.66;1759146;81;21388;-63
2021/03/27 02:19:53;;;;;;;37.60;23.98;;;;;;;4.25;75.08;100009.94;1739660;81;21104;-61
2021/03/27 02:23:00;;;;;;;35.00;23.10;;;;;;;4.26;75.03;100012.94;1739529;81;21124;-63
2021/03/27 02:26:14;;;;;;;36.65;22.80;;;;;;;4.23;75.01;100017.67;1759058;81;21045;-62
2021/03/27 02:29:38;;;;;;;41.15;24.43;;;;;;;4.18;75.16;100016.02;1759144;81;21129;-62
2021/03/27 02:31:46;;;;;;;42.30;23.80;;;;;;;4.16;75.21;100019.89;1753929;81;21341;-62
2021/03/27 02:34:30;;;;;;;40.73;23.38;;;;;;;4.10;75.22;100015.62;1740351;81;21509;-62
2021/03/27 02:37:29;;;;;;;32.58;22.45;;;;;;;4.09;75.35;100026.78;1756829;80;21073;-63
2021/03/27 02:40:09;;;;;;;36.53;22.62;;;;;;;4.07;75.44;100025.94;1749357;81;21069;-62
2021/03/27 02:42:53;;;;;;;30.20;21.80;;;;;;;4.02;75.43;100026.82;1740397;81;21068;-62
2021/03/27 02:45:46;;;;;;;35.52;23.50;;;;;;;3.95;75.52;100028.59;1759122;81;21380;-63
2021/03/27 02:48:25;;;;;;;35.73;22.52;;;;;;;3.84;75.61;100026.50;1736826;81;21156;-63
2021/03/27 02:51:09;;;;;;;35.52;22.07;;;;;;;3.74;75.95;100030.00;1757145;80;21155;-63
2021/03/27 02:54:05;;;;;;;36.10;22.82;;;;;;;3.62;76.06;100017.17;1759106;80;21065;-64
2021/03/27 02:57:04;;;;;;;38.75;23.30;;;;;;;3.50;76.36;100026.24;1759054;81;21082;-63
2021/03/27 03:00:29;;;;;;;35.98;23.57;;;;;;;3.40;76.70;100036.98;1759117;80;21198;-63
2021/03/27 03:03:03;;;;;;;40.60;23.52;;;;;;;3.33;76.91;100032.73;1758792;80;21081;-62
2021/03/27 03:05:42;;;;;;;36.38;23.18;;;;;;;3.20;77.15;100025.47;1759119;81;21120;-61
2021/03/27 03:08:26;;;;;;;35.17;23.45;;;;;;;3.14;77.38;100031.08;1759204;81;21545;-62
2021/03/27 03:11:24;;;;;;;43.63;24.60;;;;;;;3.05;77.57;100031.52;1759733;80;21498;-62
2021/03/27 03:14:21;;;;;;;37.25;24.32;;;;;;;2.95;77.80;100032.41;1762342;80;21371;-62
2021/03/27 03:17:04;;;;;;;36.15;23.55;;;;;;;2.88;77.87;100038.41;1761964;81;21711;-62
2021/03/27 03:19:58;;;;;;;36.10;23.42;;;;;;;2.80;78.10;100034.16;1745810;81;21065;-62
2021/03/27 03:22:57;;;;;;;37.70;24.10;;;;;;;2.75;78.43;100029.87;1762085;80;21065;-62
2021/03/27 03:25:29;;;;;;;32.93;21.73;;;;;;;2.70;78.60;100029.01;1762104;81;21053;-62
2021/03/27 03:28:28;;;;;;;35.98;23.12;;;;;;;2.62;78.76;100030.71;1746017;81;21156;-62
2021/03/27 03:31:29;;;;;;;35.70;21.82;;;;;;;2.50;79.03;100033.30;1762027;80;21101;-62
2021/03/27 03:34:07;;;;;;;37.80;22.13;;;;;;;2.37;79.58;100036.73;1762205;81;21057;-62
2021/03/27 03:36:52;;;;;;;33.00;21.17;;;;;;;2.26;80.06;100040.55;1762027;81;21049;-62
2021/03/27 03:39:58;;;;;;;35.08;22.77;;;;;;;2.14;80.55;100040.55;1761978;81;21581;-62
2021/03/27 03:43:01;;;;;;;36.73;23.05;;;;;;;2.04;81.00;100037.52;1761807;81;21356;-62
2021/03/27 03:45:44;;;;;;;36.28;23.15;;;;;;;1.97;81.40;100049.92;1762109;80;21104;-62
2021/03/27 03:48:46;;;;;;;35.63;21.85;;;;;;;1.95;81.73;100041.36;1745099;80;21148;-62
2021/03/27 03:51:48;;;;;;;33.85;22.37;;;;;;;1.95;82.00;100046.49;1762454;80;21517;-62
2021/03/27 03:54:41;;;;;;;34.18;21.65;;;;;;;1.95;82.13;100042.22;1762411;81;21073;-62
2021/03/27 03:57:31;;;;;;;36.65;23.38;;;;;;;1.93;82.34;100042.64;1754771;81;22710;-62
2021/03/27 04:00:19;;;;;;;42.58;25.20;;;;;;;1.97;82.50;100037.09;1762248;81;21552;-61
2021/03/27 04:03:17;;;;;;;40.80;26.10;;;;;;;2.01;82.44;100046.06;1736545;81;21106;-63
2021/03/27 04:06:02;;;;;;;40.98;25.77;;;;;;;2.04;82.23;100040.94;1760480;81;21081;-62
2021/03/27 04:08:51;;;;;;;44.70;26.97;;;;;;;2.04;82.07;100047.36;1762228;80;21148;-61
2021/03/27 04:11:48;;;;;;;45.55;28.07;;;;;;;2.10;82.04;100048.23;1761389;80;22176;-62
2021/03/27 04:14:42;;;;;;;53.33;31.07;;;;;;;2.12;81.84;100047.38;1759279;81;21096;-61
2021/03/27 04:17:27;;;;;;;45.95;27.75;;;;;;;2.16;81.65;100055.95;1759220;80;21522;-61
2021/03/27 04:20:02;;;;;;;45.78;27.52;;;;;;;2.20;81.61;100058.95;1759226;81;21057;-62
2021/03/27 04:22:40;;;;;;;65.72;28.07;;;;;;;2.25;81.45;100064.92;1759237;81;21584;-62
2021/03/27 04:25:26;;;;;;;44.15;25.77;;;;;;;2.29;81.22;100058.95;1759196;81;21204;-61
2021/03/27 04:28:09;;;;;;;51.00;26.75;;;;;;;2.33;81.18;100054.25;1759255;81;21490;-61
2021/03/27 04:31:04;;;;;;;45.08;26.52;;;;;;;2.42;81.10;100063.23;1759294;80;21509;-61
2021/03/27 04:33:48;;;;;;;50.98;27.73;;;;;;;2.51;80.87;100072.66;1759178;81;21145;-62
2021/03/27 04:36:33;;;;;;;47.25;26.75;;;;;;;2.59;80.72;100073.54;1759219;81;21049;-62
2021/03/27 04:39:17;;;;;;;40.52;25.43;;;;;;;2.67;80.46;100071.38;1741439;81;21381;-62
2021/03/27 04:42:05;;;;;;;43.13;26.23;;;;;;;2.76;79.80;100080.38;1759251;81;21494;-63
2021/03/27 04:45:06;;;;;;;38.67;24.85;;;;;;;2.81;79.36;100082.07;1759260;80;21072;-62
2021/03/27 04:47:44;;;;;;;49.95;26.45;;;;;;;2.87;79.23;100080.36;1740098;81;21125;-62
2021/03/27 04:50:35;;;;;;;48.13;26.05;;;;;;;2.95;79.07;100072.23;1759215;81;21109;-62
2021/03/27 04:53:23;;;;;;;48.13;28.10;;;;;;;3.01;78.81;100074.77;1740014;81;21097;-62
2021/03/27 04:56:14;;;;;;;47.93;26.70;;;;;;;3.08;78.87;100085.91;1759150;80;21549;-62
2021/03/27 04:59:05;;;;;;;48.98;26.10;;;;;;;3.16;78.75;100077.77;1759159;81;21153;-62
2021/03/27 05:02:08;;;;;;;41.77;26.02;;;;;;;3.31;78.39;100073.88;1873601;76;22689;-62
2021/03/27 05:05:19;;;;;;;47.58;29.98;;;;;;;3.31;78.12;100069.16;1841652;77;20922;-62
2021/03/27 05:08:19;;;;;;;93.07;34.08;;;;;;;3.34;77.91;100073.88;1765059;81;21534;-63
2021/03/27 05:11:12;;;;;;;52.43;33.05;;;;;;;3.46;77.83;100078.97;1790893;78;21483;-62
2021/03/27 05:13:48;;;;;;;55.40;31.27;;;;;;;3.59;77.66;100082.38;1751342;82;21073;-63
2021/03/27 05:16:21;;;;;;;50.30;29.50;;;;;;;3.72;77.18;100090.46;1819627;77;21021;-62
2021/03/27 05:19:14;;;;;;;50.80;30.30;;;;;;;3.84;77.01;100081.82;1841631;78;21455;-63
2021/03/27 05:22:02;;;;;;;55.20;30.20;;;;;;;3.96;76.51;100085.64;1841661;77;21176;-63
2021/03/27 05:25:06;;;;;;;50.85;27.82;;;;;;;4.03;75.99;100091.59;1812313;78;20934;-63
2021/03/27 05:28:04;;;;;;;107.40;34.13;;;;;;;4.09;76.00;100088.56;1841522;78;20935;-62
2021/03/27 05:31:00;;;;;;;55.65;27.85;;;;;;;4.19;75.66;100098.83;1830647;78;21541;-62
2021/03/27 05:34:00;;;;;;;82.65;32.40;;;;;;;4.26;75.56;100087.17;1841590;78;21038;-62
2021/03/27 05:37:13;;;;;;;59.85;28.27;;;;;;;4.46;75.27;100090.91;1841568;78;21133;-61
2021/03/27 05:40:05;;;;;;;60.55;26.02;;;;;;;4.61;74.74;100088.65;1841687;77;21124;-62
2021/03/27 05:43:25;;;;;;;44.18;25.37;;;;;;;4.71;73.92;100092.88;1790852;78;21478;-63
2021/03/27 05:46:29;;;;;;;68.22;25.37;;;;;;;4.80;73.81;100097.94;1808504;79;21144;-63
2021/03/27 05:49:34;;;;;;;51.65;25.32;;;;;;;4.95;73.52;100099.56;1808562;79;21604;-62
2021/03/27 05:52:25;;;;;;;38.45;23.50;;;;;;;5.09;73.01;100092.12;1808515;79;22273;-62
2021/03/27 05:55:41;;;;;;;55.88;24.12;;;;;;;5.19;72.67;100090.31;1780910;79;21108;-62
2021/03/27 05:58:20;;;;;;;41.05;24.50;;;;;;;5.32;72.20;100094.47;1808598;79;21049;-62
2021/03/27 06:01:15;;;;;;;46.13;25.12;;;;;;;5.41;72.00;100105.11;1808281;79;21485;-63
2021/03/27 06:03:54;;;;;;;40.05;24.75;;;;;;;5.52;71.73;100111.03;1808487;78;21510;-62
2021/03/27 06:07:22;;;;;;;68.15;27.05;;;;;;;5.59;71.39;100098.49;1808519;79;21625;-63
2021/03/27 06:10:26;;;;;;;57.00;26.85;;;;;;;5.67;71.26;100107.42;1808457;79;21156;-63
2021/03/27 06:13:15;;;;;;;54.20;27.95;;;;;;;5.78;71.07;100106.88;1798988;79;21077;-63
2021/03/27 06:16:34;;;;;;;46.08;28.20;;;;;;;5.91;71.04;100104.59;1807857;79;21144;-63
2021/03/27 06:19:57;;;;;;;66.50;38.95;;;;;;;6.10;70.72;100107.34;1807958;78;21140;-63
2021/03/27 06:22:49;;;;;;;54.90;31.82;;;;;;;6.28;70.12;100096.34;1807948;78;22349;-63
2021/03/27 06:25:41;;;;;;;44.98;29.85;;;;;;;6.41;69.74;100102.59;1807864;79;21081;-63
2021/03/27 06:28:43;;;;;;;42.83;24.55;;;;;;;6.58;69.51;100110.12;1808053;79;21073;-62
2021/03/27 06:31:52;;;;;;;82.50;27.98;;;;;;;6.73;68.98;100111.17;1785215;79;21046;-63
2021/03/27 06:35:11;;;;;;;78.40;28.62;;;;;;;6.80;68.59;100107.59;1823759;78;21130;-62
2021/03/27 06:38:21;;;;;;;43.98;24.92;;;;;;;6.85;68.32;100108.38;1773247;79;21933;-62
2021/03/27 06:41:19;;;;;;;47.65;27.62;;;;;;;6.91;68.20;100106.14;1807763;78;21085;-63
2021/03/27 06:44:25;;;;;;;52.23;28.50;;;;;;;6.99;68.08;100116.38;1807707;79;21493;-63
2021/03/27 06:47:33;;;;;;;81.55;31.82;;;;;;;7.10;68.07;100120.48;1807046;78;21164;-62
2021/03/27 06:50:35;;;;;;;54.67;31.52;;;;;;;7.28;67.65;100119.30;1807858;79;21112;-63
2021/03/27 06:53:33;;;;;;;88.30;37.93;;;;;;;7.31;67.14;100119.69;1807816;78;21346;-62
2021/03/27 06:56:39;;;;;;;58.00;34.48;;;;;;;7.29;67.37;100126.19;1807881;79;21112;-63
2021/03/27 06:59:28;;;;;;;65.75;30.97;;;;;;;7.39;67.67;100131.63;1807801;79;21073;-63
2021/03/27 07:02:47;;;;;;;55.43;31.10;;;;;;;7.58;67.25;100132.14;1803953;79;21149;-62
2021/03/27 07:05:58;;;;;;;82.92;32.25;;;;;;;7.69;67.02;100130.19;1772468;80;21124;-62
2021/03/27 07:08:46;;;;;;;62.08;31.42;;;;;;;7.81;66.67;100129.94;1756186;81;21260;-63
2021/03/27 07:11:38;;;;;;;51.30;29.63;;;;;;;7.98;66.35;100128.33;1752260;81;21594;-63
2021/03/27 07:14:51;;;;;;;65.83;32.15;;;;;;;8.05;66.09;100133.77;1743629;81;21121;-63
2021/03/27 07:17:53;;;;;;;215.65;41.88;;;;;;;8.11;65.97;100130.21;1756106;81;21558;-62
2021/03/27 07:20:41;;;;;;;;;;;;;;;8.24;65.69;100131.20;1744566;80;21157;-63
2021/03/27 07:23:54;;;;;;;49.40;25.72;;;;;;;8.32;65.42;100131.50;1756283;81;22353;-61
2021/03/27 07:26:48;;;;;;;49.70;25.17;;;;;;;8.37;64.98;100130.55;1691981;84;21639;-62
2021/03/27 07:29:51;;;;;;;96.53;32.10;;;;;;;8.54;64.26;100131.02;1873602;76;22143;-62
2021/03/27 07:33:02;;;;;;;46.60;24.85;;;;;;;8.61;63.94;100133.86;1841678;77;21041;-62
2021/03/27 07:36:10;;;;;;;80.60;27.55;;;;;;;8.66;63.60;100131.17;1811051;78;21224;-62
2021/03/27 07:38:52;;;;;;;59.53;23.12;;;;;;;8.69;63.47;100134.14;1841444;78;21006;-62
2021/03/27 07:41:35;;;;;;;41.53;22.05;;;;;;;8.80;62.88;100135.59;1841493;77;21082;-61
2021/03/27 07:44:34;;;;;;;50.40;24.23;;;;;;;8.88;62.49;100131.08;1824216;78;21081;-63
2021/03/27 07:47:43;;;;;;;65.28;24.37;;;;;;;8.93;62.38;100142.20;1808375;78;21056;-61
2021/03/27 07:50:45;;;;;;;43.85;22.32;;;;;;;8.96;62.01;100138.25;1808616;78;21474;-62
2021/03/27 07:53:50;;;;;;;34.83;21.60;;;;;;;9.03;62.22;100139.38;1808781;79;21061;-61
2021/03/27 07:56:42;;;;;;;50.60;22.42;;;;;;;9.19;61.82;100139.42;1808436;79;21021;-62
2021/03/27 07:59:49;;;;;;;35.48;23.85;;;;;;;9.28;61.43;100141.77;1808464;79;21474;-62
2021/03/27 08:02:44;;;;;;;32.83;22.15;;;;;;;9.41;61.31;100141.00;1781577;79;21117;-62
2021/03/27 08:05:40;;;;;;;28.15;21.23;;;;;;;9.62;60.86;100133.49;1808675;78;21463;-62
2021/03/27 08:08:41;;;;;;;37.75;23.85;;;;;;;9.80;60.50;100138.63;1783864;79;21068;-62
2021/03/27 08:12:08;;;;;;;74.65;23.77;;;;;;;10.06;59.96;100135.75;1808470;79;21069;-63
2021/03/27 08:15:37;;;;;;;31.65;21.75;;;;;;;10.28;59.42;100136.87;1808432;79;21069;-62
2021/03/27 08:18:35;;;;;;;59.60;24.23;;;;;;;10.59;58.59;100130.31;1808527;79;21163;-61
2021/03/27 08:21:25;;;;;;;34.45;23.15;;;;;;;10.81;57.36;100132.61;1737253;82;21385;-62
2021/03/27 08:24:44;;;;;;;31.40;19.17;;;;;;;10.95;56.75;100133.48;1808395;79;21174;-63
2021/03/27 08:27:59;;;;;;;41.55;21.70;;;;;;;11.03;55.94;100131.47;1808437;78;21212;-63
2021/03/27 08:31:14;;;;;;;49.42;22.32;;;;;;;11.08;55.51;100130.02;1814222;78;21085;-63
2021/03/27 08:34:02;;;;;;;45.28;23.12;;;;;;;11.11;55.36;100132.08;1814175;79;21152;-63
2021/03/27 08:36:53;;;;;;;44.53;23.22;;;;;;;11.17;55.04;100132.34;1786710;79;21114;-63
2021/03/27 08:39:57;;;;;;;33.65;21.45;;;;;;;11.17;54.20;100133.19;1787065;79;21117;-64
2021/03/27 08:43:09;;;;;;;28.00;20.70;;;;;;;11.21;53.22;100130.86;1813576;79;21502;-61
2021/03/27 08:46:27;;;;;;;26.02;20.27;;;;;;;11.29;53.14;100136.67;1813063;79;21140;-62
2021/03/27 08:49:22;;;;;;;48.95;21.90;;;;;;;11.42;52.56;100124.07;1813542;78;21160;-63
2021/03/27 08:52:34;;;;;;;38.25;21.35;;;;;;;11.60;52.52;100130.39;1813567;79;21472;-62
2021/03/27 08:55:45;;;;;;;108.85;25.60;;;;;;;11.77;52.16;100134.61;1813457;79;21136;-62
2021/03/27 08:58:45;;;;;;;48.38;21.95;;;;;;;12.05;51.76;100129.23;1813496;78;21108;-63
2021/03/27 09:01:42;;;;;;;38.88;23.07;;;;;;;12.33;50.97;100123.84;1813576;79;21057;-63
2021/03/27 09:04:46;;;;;;;45.20;20.90;;;;;;;12.62;50.26;100126.61;1813690;78;21475;-62
2021/03/27 09:07:49;;;;;;;27.20;19.40;;;;;;;12.80;48.99;100130.24;1813588;79;21130;-62
2021/03/27 09:10:51;;;;;;;38.15;19.17;;;;;;;12.86;47.65;100126.09;1813481;79;21596;-63
2021/03/27 09:14:02;;;;;;;26.40;17.82;;;;;;;12.84;47.59;100128.77;1813812;78;21069;-63
2021/03/27 09:16:39;;;;;;;23.87;18.57;;;;;;;12.80;47.10;100131.55;1813548;79;21066;-62
2021/03/27 09:19:18;;;;;;;25.12;18.90;;;;;;;12.74;47.23;100126.14;1813521;78;21069;-62
2021/03/27 09:22:45;;;;;;;75.45;22.98;;;;;;;12.63;47.47;100123.09;1813533;78;21356;-61
2021/03/27 09:25:53;;;;;;;34.15;21.62;;;;;;;12.51;47.56;100120.52;1813495;79;21482;-64
2021/03/27 09:28:49;;;;;;;28.10;17.98;;;;;;;12.32;47.94;100113.86;1811599;79;21058;-63
2021/03/27 09:31:49;;;;;;;25.70;18.50;;;;;;;12.11;47.19;100121.19;1807872;79;21049;-62
2021/03/27 09:34:43;;;;;;;46.18;19.62;;;;;;;11.85;47.93;100118.68;1807952;79;21526;-61
2021/03/27 09:41:13;;;;;;;39.70;20.90;;;;;;;11.59;48.31;100127.42;1597463;89;21182;-63
2021/03/27 09:44:21;;;;;;;26.65;20.30;;;;;;;11.61;49.04;100117.31;1622078;88;21180;-62
2021/03/27 09:47:17;;;;;;;32.63;19.77;;;;;;;11.70;49.18;100111.78;1600265;88;21221;-62
2021/03/27 09:50:42;;;;;;;36.73;18.90;;;;;;;11.76;49.07;100111.17;1626474;87;21161;-64
2021/03/27 09:53:35;;;;;;;41.25;21.10;;;;;;;11.76;48.70;100115.97;1626186;88;22173;-62
2021/03/27 09:56:19;;;;;;;28.17;16.57;;;;;;;11.77;48.93;100114.22;1626268;88;21177;-62
2021/03/27 09:59:17;;;;;;;21.90;17.98;;;;;;;11.82;48.60;100110.52;1599979;89;21153;-63
2021/03/27 10:01:53;;;;;;;25.05;16.48;;;;;;;11.86;48.29;100109.50;1628840;87;21114;-62
2021/03/27 10:04:55;;;;;;;21.50;15.78;;;;;;;11.87;48.00;100115.12;1628773;88;21188;-63
2021/03/27 10:07:45;;;;;;;23.12;16.40;;;;;;;11.93;47.52;100117.96;1628855;88;22076;-63
2021/03/27 10:10:35;;;;;;;21.37;15.08;;;;;;;11.96;46.50;100112.64;1628799;86;21161;-63
2021/03/27 10:13:41;;;;;;;24.02;16.27;;;;;;;11.98;46.49;100107.77;1628831;88;21605;-61
2021/03/27 10:16:23;;;;;;;26.65;16.62;;;;;;;12.12;46.64;100114.22;1628713;87;21236;-63
2021/03/27 10:19:01;;;;;;;20.62;15.78;;;;;;;12.27;46.21;100108.41;1600053;89;21595;-62
2021/03/27 10:22:15;;;;;;;25.75;16.97;;;;;;;12.41;45.79;100102.20;1628754;86;21235;-63
2021/03/27 10:25:02;;;;;;;17.20;14.93;;;;;;;12.60;45.65;100102.33;1628508;88;21148;-62
2021/03/27 10:28:12;;;;;;;19.82;15.18;;;;;;;12.86;44.47;100103.90;1628595;88;21205;-63
2021/03/27 10:31:01;;;;;;;20.80;14.53;;;;;;;12.95;43.51;100098.31;1628768;86;21717;-62
2021/03/27 10:33:57;;;;;;;17.85;13.60;;;;;;;13.09;44.16;100096.83;1628719;88;21208;-62
2021/03/27 10:36:47;;;;;;;18.05;15.38;;;;;;;13.28;42.21;100093.02;1625899;88;21521;-61
2021/03/27 10:39:49;;;;;;;19.25;13.72;;;;;;;13.44;40.53;100093.20;1639618;86;21545;-62
2021/03/27 10:42:54;;;;;;;23.18;13.85;;;;;;;13.55;40.05;100090.98;1655928;86;21087;-62
2021/03/27 10:45:56;;;;;;;36.08;15.03;;;;;;;13.71;39.45;100088.08;1655521;86;21647;-62
2021/03/27 10:48:31;;;;;;;18.52;13.68;;;;;;;13.83;38.52;100084.05;1656021;86;21638;-63
2021/03/27 10:51:27;;;;;;;21.55;13.83;;;;;;;13.90;38.65;100088.56;1633456;86;21275;-61
2021/03/27 10:54:14;;;;;;;21.07;13.83;;;;;;;13.90;39.20;100082.02;1655911;86;21130;-62
2021/03/27 10:57:23;;;;;;;17.60;14.40;;;;;;;13.82;39.52;100078.89;1656007;85;21511;-62
2021/03/27 11:00:21;;;;;;;20.52;14.73;;;;;;;13.68;39.06;100079.52;1655949;86;21201;-63
2021/03/27 11:03:12;;;;;;;20.40;13.28;;;;;;;13.44;39.69;100080.98;1655948;86;21082;-62
2021/03/27 11:06:05;;;;;;;21.20;15.48;;;;;;;13.23;40.18;100087.13;1655950;85;21389;-62
2021/03/27 11:09:06;;;;;;;16.70;14.90;;;;;;;13.06;40.96;100085.20;1655856;85;21167;-62
2021/03/27 11:12:19;;;;;;;25.88;18.12;;;;;;;12.97;41.95;100096.05;1655893;85;21122;-63
2021/03/27 11:15:28;;;;;;;21.50;15.72;;;;;;;12.84;42.20;100090.91;1655915;85;21119;-63
2021/03/27 11:18:07;;;;;;;20.35;14.93;;;;;;;12.67;42.60;100094.20;1656015;86;21518;-61
2021/03/27 11:21:08;;;;;;;18.95;15.30;;;;;;;12.51;42.79;100089.20;1655964;86;21219;-61
2021/03/27 11:24:14;;;;;;;22.50;15.40;;;;;;;12.41;43.06;100090.47;1656166;85;21598;-62
2021/03/27 11:27:26;;;;;;;37.80;19.62;;;;;;;12.33;43.29;100089.93;1633287;86;21234;-63
2021/03/27 11:30:06;;;;;;;29.30;17.45;;;;;;;12.27;43.88;100096.67;1655993;85;21111;-63
2021/03/27 11:33:03;;;;;;;25.02;15.80;;;;;;;12.26;43.27;100091.06;1888655;76;22792;-62
2021/03/27 11:35:36;;;;;;;22.93;15.48;;;;;;;12.17;42.99;100089.67;1783642;77;21099;-63
2021/03/27 11:38:31;;;;;;;19.20;14.68;;;;;;;12.18;42.74;100090.07;1849833;77;20936;-62
2021/03/27 11:41:16;;;;;;;16.37;12.55;;;;;;;12.23;42.27;100091.17;1823298;77;20976;-62
2021/03/27 11:44:23;;;;;;;24.02;13.20;;;;;;;12.32;40.23;100086.92;1837907;77;20917;-63
2021/03/27 11:47:08;;;;;;;24.95;13.43;;;;;;;12.41;39.52;100086.09;1787036;79;21130;-62
2021/03/27 11:49:48;;;;;;;32.03;14.53;;;;;;;12.61;39.17;100085.77;1774752;80;21513;-62
2021/03/27 11:52:27;;;;;;;25.88;16.12;;;;;;;12.81;38.74;100084.95;1743187;82;21162;-61
2021/03/27 11:55:11;;;;;;;20.48;12.23;;;;;;;13.03;37.98;100072.72;1743035;82;21391;-62
2021/03/27 11:58:26;;;;;;;37.65;14.68;;;;;;;13.33;37.19;100075.39;1743352;82;21031;-61
2021/03/27 12:01:04;;;;;;;15.35;12.90;;;;;;;13.60;36.39;100062.00;1775273;80;21064;-63
2021/03/27 12:04:01;;;;;;;17.00;13.65;;;;;;;13.92;36.70;100068.42;1775376;80;21066;-62
2021/03/27 12:07:10;;;;;;;19.73;12.63;;;;;;;14.24;37.56;100068.23;1873568;76;22645;-61
2021/03/27 12:10:22;;;;;;;18.60;13.78;;;;;;;14.36;37.63;100065.05;1841522;78;21565;-61
2021/03/27 12:13:04;;;;;;;29.07;15.58;;;;;;;14.58;37.35;100059.21;1841595;77;21517;-63
2021/03/27 12:15:42;;;;;;;24.95;14.80;;;;;;;14.67;37.19;100061.83;1841460;78;20935;-62
2021/03/27 12:18:23;;;;;;;21.07;14.93;;;;;;;14.73;36.51;100065.00;1840895;78;20938;-62
2021/03/27 12:21:02;;;;;;;18.98;14.03;;;;;;;14.79;36.44;100069.92;1841685;78;21086;-63
2021/03/27 12:23:44;;;;;;;28.65;15.93;;;;;;;14.91;36.36;100069.79;1838870;78;21553;-63
2021/03/27 12:26:56;;;;;;;31.37;16.27;;;;;;;14.95;35.51;100064.80;1837690;77;21188;-62
2021/03/27 12:29:48;;;;;;;36.50;15.68;;;;;;;14.89;35.12;100063.78;1841450;77;21013;-62
2021/03/27 12:32:37;;;;;;;19.35;12.30;;;;;;;14.78;34.98;100062.16;1794280;78;21198;-62
2021/03/27 12:35:34;;;;;;;20.65;12.47;;;;;;;14.75;35.28;100061.85;1841430;77;21077;-62
2021/03/27 12:38:15;;;;;;;30.20;14.18;;;;;;;14.80;35.21;100064.22;1841518;78;21042;-62
2021/03/27 12:41:13;;;;;;;16.85;12.78;;;;;;;14.82;34.66;100062.38;1841570;78;21358;-62
2021/03/27 12:43:47;;;;;;;14.55;13.00;;;;;;;14.70;34.37;100065.15;1799857;78;21137;-62
2021/03/27 12:46:53;;;;;;;17.65;14.28;;;;;;;14.47;35.17;100068.88;1808340;78;21089;-62
2021/03/27 12:50:07;;;;;;;17.27;13.90;;;;;;;14.21;36.00;100065.75;1808592;78;21079;-62
2021/03/27 12:53:01;;;;;;;24.52;13.98;;;;;;;13.95;36.43;100074.83;1808522;79;21065;-62
2021/03/27 12:56:00;;;;;;;29.57;16.82;;;;;;;13.76;36.66;100079.58;1808475;79;21368;-62
2021/03/27 12:58:47;;;;;;;30.35;19.35;;;;;;;13.64;36.90;100080.11;1808394;79;20986;-61
2021/03/27 13:01:47;;;;;;;36.42;19.02;;;;;;;13.51;37.22;100082.03;1808489;78;21057;-62
2021/03/27 13:04:49;;;;;;;23.32;15.95;;;;;;;13.38;37.69;100085.19;1888567;76;21925;-62
2021/03/27 13:07:30;;;;;;;16.50;13.43;;;;;;;13.29;37.99;100080.80;1775309;80;21115;-62
2021/03/27 13:10:34;;;;;;;22.58;15.30;;;;;;;13.24;37.75;100075.77;1723388;81;21179;-62
2021/03/27 13:13:52;;;;;;;23.27;17.05;;;;;;;13.18;37.73;100076.50;1775374;80;21095;-62
2021/03/27 13:16:40;;;;;;;14.60;12.85;;;;;;;13.13;38.28;100075.81;1773939;81;20910;-62
2021/03/27 13:19:38;;;;;;;17.48;12.80;;;;;;;13.16;38.35;100081.80;1775385;80;21505;-63
2021/03/27 13:22:29;;;;;;;26.68;13.80;;;;;;;13.16;38.28;100072.65;1773767;81;21025;-61
2021/03/27 13:25:04;;;;;;;48.70;15.45;;;;;;;13.19;38.32;100071.67;1775363;80;21520;-63